Time;durP1;ratioP1;P1;durP2;ratioP2;P2;SDS_P1;SDS_P2;PMS_P1;PMS_P2;Temp;Humidity;BMP_temperature;BMP_pressure;BME280_temperature;BME280_humidity;BME280_pressure;Samples;Min_cycle;Max_cycle;Signal;HPM_P1;HPM_P2
2021/04/30 00:01:22;;;;;;;23.30;13.80;;;359.30;2304.00;;;;;;5049766;28;20129;-81
2021/04/30 00:03:48;;;;;;;19.83;13.60;;;359.30;2304.00;;;;;;5066985;28;20040;-80
2021/04/30 00:06:14;;;;;;;20.75;14.05;;;359.30;2304.00;;;;;;5051079;28;20143;-81
2021/04/30 00:08:40;;;;;;;18.50;13.00;;;359.30;2304.00;;;;;;5052688;28;20428;-81
2021/04/30 00:11:07;;;;;;;17.40;12.43;;;359.30;2304.00;;;;;;5053321;28;20033;-81
2021/04/30 00:13:35;;;;;;;18.92;13.93;;;359.20;2304.00;;;;;;5059442;28;20111;-81
2021/04/30 00:16:01;;;;;;;20.85;13.93;;;359.20;2304.00;;;;;;5044345;28;20653;-81
2021/04/30 00:18:27;;;;;;;23.33;13.85;;;359.20;2304.00;;;;;;5054426;28;20067;-80
2021/04/30 00:20:55;;;;;;;17.70;12.85;;;359.30;2329.60;;;;;;5054347;28;20033;-80
2021/04/30 00:23:28;;;;;;;18.65;13.80;;;359.30;2304.00;;;;;;5061492;28;20054;-81
2021/04/30 00:25:56;;;;;;;19.80;13.45;;;359.30;2304.00;;;;;;5053792;28;20392;-82
2021/04/30 00:28:23;;;;;;;23.77;16.27;;;384.00;2304.00;;;;;;5061705;28;20025;-82
2021/04/30 00:30:51;;;;;;;20.90;13.85;;;359.30;2329.60;;;;;;5052934;28;20488;-83
2021/04/30 00:33:17;;;;;;;18.33;14.50;;;384.00;2304.00;;;;;;5071163;28;20495;-82
2021/04/30 00:35:43;;;;;;;19.48;13.43;;;384.00;2329.60;;;;;;5054573;28;20025;-83
2021/04/30 00:38:13;;;;;;;19.42;13.57;;;359.30;2329.60;;;;;;5061468;28;20056;-81
2021/04/30 00:40:39;;;;;;;18.83;13.80;;;384.00;2329.60;;;;;;5060712;28;20028;-81
2021/04/30 00:43:05;;;;;;;20.80;14.13;;;384.00;2329.60;;;;;;5059723;28;20060;-81
2021/04/30 00:45:33;;;;;;;21.13;14.95;;;384.00;2329.60;;;;;;5054172;28;20056;-81
2021/04/30 00:47:59;;;;;;;20.45;14.68;;;384.00;2329.60;;;;;;5056406;28;20124;-82
2021/04/30 00:50:27;;;;;;;18.75;13.60;;;359.30;2329.60;;;;;;5062983;28;20139;-81
2021/04/30 00:52:53;;;;;;;22.67;13.45;;;359.30;2329.60;;;;;;5058818;28;20130;-81
2021/04/30 00:55:21;;;;;;;18.38;14.82;;;384.00;2329.60;;;;;;5049412;28;20109;-81
2021/04/30 00:58:02;;;;;;;23.77;16.38;;;384.00;2329.60;;;;;;5069094;28;20017;-81
2021/04/30 01:00:31;;;;;;;18.27;13.85;;;359.30;2329.60;;;;;;5054346;28;20634;-81
2021/04/30 01:02:57;;;;;;;18.75;13.93;;;359.30;2329.60;;;;;;5058775;28;20033;-80
2021/04/30 01:05:23;;;;;;;25.38;14.57;;;359.30;2329.60;;;;;;5052602;28;20083;-81
2021/04/30 01:07:50;;;;;;;21.23;15.70;;;359.30;2329.60;;;;;;5063922;28;20031;-81
2021/04/30 01:10:17;;;;;;;18.30;13.88;;;359.20;2329.60;;;;;;5066514;28;20024;-81
2021/04/30 01:12:44;;;;;;;16.48;13.05;;;359.20;2329.60;;;;;;5058557;28;20029;-82
2021/04/30 01:15:12;;;;;;;25.38;15.65;;;359.20;2329.60;;;;;;5053265;28;20028;-82
2021/04/30 01:17:39;;;;;;;24.33;15.38;;;359.10;2329.60;;;;;;5058530;28;20383;-81
2021/04/30 01:20:07;;;;;;;21.42;15.50;;;359.10;2329.60;;;;;;5053631;28;20056;-84
2021/04/30 01:22:40;;;;;;;21.33;13.48;;;359.10;2329.60;;;;;;5053163;28;20029;-81
2021/04/30 01:25:09;;;;;;;20.98;14.05;;;359.10;2329.60;;;;;;5057120;28;20028;-80
2021/04/30 01:27:35;;;;;;;20.92;15.32;;;359.00;2329.60;;;;;;5053856;28;20039;-80
2021/04/30 01:30:03;;;;;;;22.90;13.93;;;359.00;2329.60;;;;;;5063742;28;20020;-82
2021/04/30 01:32:28;;;;;;;18.52;13.65;;;359.00;2329.60;;;;;;5072133;28;20049;-81
2021/04/30 01:34:54;;;;;;;22.23;14.35;;;359.00;2329.60;;;;;;5060628;28;20373;-81
2021/04/30 01:37:20;;;;;;;16.02;12.55;;;359.00;2329.60;;;;;;5052409;28;20051;-80
2021/04/30 01:39:46;;;;;;;18.90;13.82;;;359.00;2329.60;;;;;;5059110;28;20024;-81
2021/04/30 01:42:11;;;;;;;22.10;14.18;;;358.90;2329.60;;;;;;5054749;28;20039;-81
2021/04/30 01:44:38;;;;;;;20.38;13.18;;;358.90;2329.60;;;;;;5047423;28;20490;-80
2021/04/30 01:47:04;;;;;;;18.85;13.25;;;358.90;2329.60;;;;;;5055814;28;20036;-82
2021/04/30 01:49:30;;;;;;;20.98;13.77;;;359.10;2329.60;;;;;;5053245;28;20024;-82
2021/04/30 01:51:55;;;;;;;22.70;13.93;;;358.90;2329.60;;;;;;5060747;28;20031;-82
2021/04/30 01:54:22;;;;;;;22.25;14.57;;;358.90;2329.60;;;;;;5057201;28;20562;-82
2021/04/30 01:56:48;;;;;;;22.38;13.65;;;358.90;2329.60;;;;;;5053076;28;20452;-82
2021/04/30 01:59:14;;;;;;;19.80;15.15;;;358.70;2329.60;;;;;;5053133;28;20025;-81
2021/04/30 02:01:39;;;;;;;22.88;14.95;;;358.80;2329.60;;;;;;5052948;28;20047;-81
2021/04/30 02:04:11;;;;;;;19.70;13.80;;;358.80;2329.60;;;;;;5054354;28;20029;-81
2021/04/30 02:06:38;;;;;;;21.30;14.60;;;358.80;2329.60;;;;;;5053318;28;20025;-81
2021/04/30 02:09:05;;;;;;;21.08;13.75;;;358.90;2329.60;;;;;;5054054;28;20021;-82
2021/04/30 02:11:31;;;;;;;20.50;13.88;;;358.90;2329.60;;;;;;5053823;28;20029;-81
2021/04/30 02:13:56;;;;;;;19.95;14.63;;;358.80;2329.60;;;;;;5052528;28;20480;-81
2021/04/30 02:16:22;;;;;;;21.10;14.52;;;358.80;2329.60;;;;;;5052677;28;20048;-81
2021/04/30 02:18:48;;;;;;;19.83;14.57;;;358.80;2329.60;;;;;;5061175;28;20021;-81
2021/04/30 02:21:14;;;;;;;18.25;12.73;;;358.80;2329.60;;;;;;5058926;28;20032;-81
2021/04/30 02:23:39;;;;;;;19.38;14.30;;;358.80;2329.60;;;;;;5052806;28;20025;-81
2021/04/30 02:26:05;;;;;;;20.33;12.52;;;358.80;2329.60;;;;;;5052561;28;20032;-81
2021/04/30 02:28:32;;;;;;;17.75;13.55;;;358.80;2329.60;;;;;;5052398;28;20036;-80
2021/04/30 02:30:57;;;;;;;22.02;15.10;;;358.80;2329.60;;;;;;5052022;28;20499;-81
2021/04/30 02:33:23;;;;;;;23.55;14.30;;;358.80;2329.60;;;;;;5051296;28;20124;-80
2021/04/30 02:35:49;;;;;;;23.63;14.55;;;358.80;2329.60;;;;;;5051920;28;20031;-81
2021/04/30 02:38:18;;;;;;;21.13;12.70;;;358.80;2329.60;;;;;;5050987;28;20033;-82
2021/04/30 02:40:46;;;;;;;26.20;15.20;;;358.80;2329.60;;;;;;5053362;28;20021;-81
2021/04/30 02:43:14;;;;;;;17.80;13.63;;;358.80;2329.60;;;;;;5053432;28;20027;-81
2021/04/30 02:45:42;;;;;;;21.08;14.65;;;358.80;2329.60;;;;;;5052009;28;20112;-80
2021/04/30 02:48:13;;;;;;;25.80;17.10;;;358.80;2329.60;;;;;;5053318;28;20035;-80
2021/04/30 02:50:39;;;;;;;18.65;14.40;;;358.80;2329.60;;;;;;5051923;28;20032;-81
2021/04/30 02:53:05;;;;;;;18.10;14.30;;;358.80;2329.60;;;;;;5053064;28;20100;-81
2021/04/30 02:55:31;;;;;;;21.42;15.10;;;358.80;2329.60;;;;;;5052346;28;20113;-80
2021/04/30 02:57:58;;;;;;;23.83;15.65;;;358.80;2329.60;;;;;;5049740;28;20052;-79
2021/04/30 03:00:27;;;;;;;23.52;16.23;;;358.90;2329.60;;;;;;5051272;28;20021;-81
2021/04/30 03:02:53;;;;;;;20.60;13.68;;;358.80;2329.60;;;;;;5038799;28;20037;-80
2021/04/30 03:05:19;;;;;;;20.75;14.32;;;358.80;2329.60;;;;;;5059265;28;20021;-80
2021/04/30 03:07:45;;;;;;;23.45;16.17;;;358.70;2329.60;;;;;;5053068;28;20539;-81
2021/04/30 03:10:12;;;;;;;33.15;22.13;;;358.80;2329.60;;;;;;5051296;28;20110;-80
2021/04/30 03:12:38;;;;;;;36.30;21.25;;;358.80;2329.60;;;;;;5051818;28;20059;-81
2021/04/30 03:15:05;;;;;;;25.92;17.30;;;358.80;2329.60;;;;;;5052454;28;20025;-80
2021/04/30 03:17:31;;;;;;;23.40;16.00;;;358.80;2329.60;;;;;;5050583;28;20040;-81
2021/04/30 03:19:57;;;;;;;20.30;14.82;;;358.90;2329.60;;;;;;5053016;28;20472;-81
2021/04/30 03:22:23;;;;;;;21.73;15.15;;;358.90;2329.60;;;;;;5050896;28;20029;-82
2021/04/30 03:24:48;;;;;;;20.67;15.45;;;358.90;2329.60;;;;;;5052624;28;20029;-81
2021/04/30 03:27:14;;;;;;;17.63;12.68;;;359.00;2329.60;;;;;;5051528;28;20033;-80
2021/04/30 03:29:40;;;;;;;23.05;13.98;;;359.00;2329.60;;;;;;5054418;28;20017;-81
2021/04/30 03:32:08;;;;;;;25.13;15.43;;;359.00;2329.60;;;;;;5053496;28;20468;-82
2021/04/30 03:34:34;;;;;;;20.75;15.02;;;359.00;2329.60;;;;;;5053624;28;20029;-81
2021/04/30 03:37:00;;;;;;;18.00;13.38;;;359.00;2329.60;;;;;;5052115;28;20483;-81
2021/04/30 03:39:26;;;;;;;22.92;15.45;;;359.00;2329.60;;;;;;5054213;28;20039;-81
2021/04/30 03:41:52;;;;;;;22.63;14.68;;;359.00;2329.60;;;;;;5046721;28;20091;-82
2021/04/30 03:44:17;;;;;;;20.13;13.70;;;359.00;2329.60;;;;;;5059878;28;20036;-79
2021/04/30 03:46:43;;;;;;;19.27;13.07;;;359.00;2329.60;;;;;;5050693;28;20155;-80
2021/04/30 03:49:09;;;;;;;25.13;14.38;;;359.00;2329.60;;;;;;5050949;28;20501;-80
2021/04/30 03:51:34;;;;;;;21.65;15.88;;;359.00;2329.60;;;;;;5052582;28;20033;-81
2021/04/30 03:54:00;;;;;;;20.38;13.90;;;359.00;2329.60;;;;;;5056445;28;20055;-79
2021/04/30 03:56:26;;;;;;;19.52;14.00;;;359.00;2329.60;;;;;;5057864;28;20040;-82
2021/04/30 03:58:52;;;;;;;21.40;13.73;;;359.10;2329.60;;;;;;5045051;28;20150;-81
2021/04/30 04:01:18;;;;;;;17.20;13.32;;;359.10;2329.60;;;;;;5053793;28;20032;-81
2021/04/30 04:03:44;;;;;;;20.08;13.52;;;359.20;2329.60;;;;;;5051001;28;20025;-79
2021/04/30 04:06:09;;;;;;;19.58;13.73;;;359.20;2329.60;;;;;;5051614;28;20155;-79
2021/04/30 04:08:35;;;;;;;19.42;14.73;;;359.20;2329.60;;;;;;5051956;28;20052;-79
2021/04/30 04:11:01;;;;;;;19.83;14.75;;;359.30;2329.60;;;;;;5052130;28;20396;-80
2021/04/30 04:13:27;;;;;;;20.80;14.75;;;359.30;2329.60;;;;;;5051760;28;20120;-79
2021/04/30 04:15:54;;;;;;;22.80;15.07;;;359.30;2329.60;;;;;;5050445;28;20032;-79
2021/04/30 04:18:23;;;;;;;29.27;15.07;;;359.30;2329.60;;;;;;5068435;28;20048;-80
2021/04/30 04:20:49;;;;;;;19.10;14.30;;;359.30;2329.60;;;;;;5078187;28;20840;-79
2021/04/30 04:23:15;;;;;;;19.90;13.77;;;384.00;2329.60;;;;;;5055818;28;20029;-79
2021/04/30 04:25:41;;;;;;;17.42;12.82;;;384.10;2329.60;;;;;;5056071;28;20104;-79
2021/04/30 04:28:07;;;;;;;19.35;14.32;;;384.10;2329.60;;;;;;5054758;28;20457;-79
2021/04/30 04:30:34;;;;;;;20.50;15.88;;;384.10;2329.60;;;;;;5053559;28;20435;-79
2021/04/30 04:33:00;;;;;;;18.40;14.40;;;384.10;2329.60;;;;;;5049593;28;20037;-79
2021/04/30 04:35:26;;;;;;;21.23;14.20;;;384.20;2329.60;;;;;;5051359;28;20020;-79
2021/04/30 04:37:51;;;;;;;22.95;16.08;;;384.30;2329.60;;;;;;5050632;28;20025;-79
2021/04/30 04:40:17;;;;;;;22.92;14.20;;;384.30;2329.60;;;;;;5051501;28;20025;-79
2021/04/30 04:42:44;;;;;;;18.40;13.80;;;384.40;2329.60;;;;;;5052306;28;20773;-79
2021/04/30 04:45:11;;;;;;;24.13;14.73;;;384.40;2329.60;;;;;;5050234;28;20024;-79
2021/04/30 04:47:37;;;;;;;22.80;15.05;;;384.50;2329.60;;;;;;5058728;28;20033;-78
2021/04/30 04:50:04;;;;;;;22.05;14.77;;;384.50;2329.60;;;;;;5052420;28;20052;-79
2021/04/30 04:52:30;;;;;;;20.48;14.55;;;384.60;2329.60;;;;;;5037964;28;20029;-79
2021/04/30 04:54:56;;;;;;;21.90;14.55;;;384.70;2329.60;;;;;;5050437;28;20498;-80
2021/04/30 04:57:21;;;;;;;22.73;15.23;;;384.70;2329.60;;;;;;5051196;28;20036;-80
2021/04/30 04:59:47;;;;;;;19.75;13.85;;;384.70;2329.60;;;;;;5064696;28;20025;-79
2021/04/30 05:02:13;;;;;;;20.30;14.02;;;384.80;2329.60;;;;;;5047946;28;20079;-79
2021/04/30 05:04:38;;;;;;;24.90;14.73;;;384.90;2329.60;;;;;;5059510;28;20427;-79
2021/04/30 05:07:04;;;;;;;21.55;14.55;;;384.90;2329.60;;;;;;5071347;28;20029;-79
2021/04/30 05:09:30;;;;;;;18.80;14.35;;;384.90;2329.60;;;;;;5055188;28;20033;-79
2021/04/30 05:11:56;;;;;;;23.60;14.43;;;409.60;2355.20;;;;;;5042070;28;20053;-79
2021/04/30 05:14:22;;;;;;;18.48;13.93;;;409.80;2329.60;;;;;;5038594;28;20476;-79
2021/04/30 05:16:48;;;;;;;19.02;14.23;;;409.90;2304.00;;;;;;5056603;28;20017;-79
2021/04/30 05:19:14;;;;;;;26.25;14.40;;;410.10;2304.00;;;;;;5055022;28;20112;-79
2021/04/30 05:21:41;;;;;;;20.65;13.27;;;410.20;2304.00;;;;;;5054184;28;20116;-79
2021/04/30 05:24:11;;;;;;;17.70;13.45;;;410.30;2278.40;;;;;;5070345;28;20021;-80
2021/04/30 05:26:37;;;;;;;20.70;12.73;;;410.50;2252.80;;;;;;5052707;28;20505;-80
2021/04/30 05:29:04;;;;;;;18.65;14.10;;;435.40;2252.80;;;;;;5053634;28;20123;-80
2021/04/30 05:31:30;;;;;;;16.63;13.38;;;435.70;2227.20;;;;;;5070025;28;20065;-79
2021/04/30 05:33:56;;;;;;;21.50;13.88;;;436.00;2176.00;;;;;;5053508;28;20036;-80
2021/04/30 05:36:21;;;;;;;16.88;12.73;;;460.90;2150.40;;;;;;5054823;28;20464;-80
2021/04/30 05:38:47;;;;;;;17.27;13.00;;;461.20;2124.80;;;;;;5054591;28;20495;-80
2021/04/30 05:41:13;;;;;;;15.88;11.73;;;461.50;2099.20;;;;;;5054394;28;20349;-80
2021/04/30 05:43:39;;;;;;;16.27;12.18;;;461.70;2073.60;;;;;;5061726;28;20033;-80
2021/04/30 05:46:06;;;;;;;19.30;12.45;;;461.70;2073.60;;;;;;5050291;28;20036;-81
2021/04/30 05:48:31;;;;;;;16.27;13.35;;;486.40;2073.60;;;;;;5043095;28;20073;-81
2021/04/30 05:50:57;;;;;;;17.98;11.85;;;486.40;2048.00;;;;;;5055459;28;20091;-80
2021/04/30 05:53:23;;;;;;;13.50;11.70;;;486.60;2022.40;;;;;;5052967;28;20128;-80
2021/04/30 05:55:49;;;;;;;14.30;11.23;;;486.70;2022.40;;;;;;5052166;28;20098;-79
2021/04/30 05:58:15;;;;;;;17.52;13.90;;;486.70;2022.40;;;;;;5052614;28;20120;-79
2021/04/30 06:00:41;;;;;;;17.90;14.85;;;486.90;1996.80;;;;;;5053582;28;20029;-80
2021/04/30 06:03:07;;;;;;;23.73;16.77;;;486.70;2022.40;;;;;;5053828;28;20017;-80
2021/04/30 06:05:32;;;;;;;19.92;17.17;;;486.70;2022.40;;;;;;5054051;28;20472;-80
2021/04/30 06:07:58;;;;;;;21.75;16.48;;;486.90;2022.40;;;;;;5052739;28;20482;-79
2021/04/30 06:10:24;;;;;;;19.52;12.95;;;487.00;2022.40;;;;;;5068895;28;20071;-79
2021/04/30 06:12:50;;;;;;;15.23;12.00;;;486.90;2022.40;;;;;;5052649;28;20021;-79
2021/04/30 06:15:16;;;;;;;16.83;13.73;;;487.00;1996.80;;;;;;5052039;28;20111;-79
2021/04/30 06:17:42;;;;;;;21.10;13.85;;;487.10;1996.80;;;;;;5052552;28;20028;-80
2021/04/30 06:20:08;;;;;;;19.42;14.20;;;512.10;1971.20;;;;;;5053995;28;20025;-79
2021/04/30 06:22:35;;;;;;;20.67;15.68;;;512.40;1945.60;;;;;;5053835;28;20368;-79
2021/04/30 06:25:01;;;;;;;61.65;31.10;;;512.70;1920.00;;;;;;5053593;28;20478;-80
2021/04/30 06:27:27;;;;;;;19.90;13.82;;;537.70;1894.40;;;;;;5068166;28;20036;-79
2021/04/30 06:29:53;;;;;;;19.05;11.88;;;537.90;1843.20;;;;;;5068810;28;20116;-79
2021/04/30 06:32:19;;;;;;;25.15;13.88;;;538.10;1843.20;;;;;;5055429;28;20057;-79
2021/04/30 06:34:45;;;;;;;32.13;17.27;;;538.30;1817.60;;;;;;5050069;28;20116;-80
2021/04/30 06:37:10;;;;;;;88.47;33.03;;;563.20;1843.20;;;;;;5055782;28;20047;-79
2021/04/30 06:39:36;;;;;;;71.53;28.48;;;563.40;1817.60;;;;;;5053460;28;20025;-80
2021/04/30 06:42:02;;;;;;;50.55;20.88;;;563.70;1792.00;;;;;;5051748;28;20480;-80
2021/04/30 06:44:32;;;;;;;81.38;29.17;;;564.10;1766.40;;;;;;5052821;28;20032;-79
2021/04/30 06:46:58;;;;;;;15.57;11.07;;;588.80;1715.20;;;;;;5039532;28;20052;-79
2021/04/30 06:49:24;;;;;;;44.72;18.90;;;563.80;1766.40;;;;;;5051904;28;20029;-79
2021/04/30 06:51:50;;;;;;;19.98;11.15;;;563.60;1766.40;;;;;;5051205;28;20029;-79
2021/04/30 06:54:17;;;;;;;12.43;9.80;;;538.50;1792.00;;;;;;5054661;28;20056;-80
2021/04/30 06:56:43;;;;;;;17.50;10.80;;;538.10;1817.60;;;;;;5054431;28;20025;-80
2021/04/30 06:59:09;;;;;;;14.85;10.38;;;538.30;1817.60;;;;;;5051344;28;20047;-80
2021/04/30 07:01:35;;;;;;;16.52;10.52;;;563.50;1817.60;;;;;;5067277;28;20120;-79
2021/04/30 07:04:01;;;;;;;17.95;10.35;;;563.80;1792.00;;;;;;5052624;28;20025;-80
2021/04/30 07:06:27;;;;;;;21.20;11.30;;;564.00;1740.80;;;;;;5059264;28;20052;-80
2021/04/30 07:08:53;;;;;;;13.63;8.35;;;588.80;1715.20;;;;;;5050122;28;20044;-78
2021/04/30 07:11:18;;;;;;;14.45;9.68;;;589.00;1715.20;;;;;;5050779;28;20104;-79
2021/04/30 07:13:44;;;;;;;12.45;7.93;;;589.40;1689.60;;;;;;5053450;28;20107;-80
2021/04/30 07:16:10;;;;;;;13.82;7.63;;;589.70;1638.40;;;;;;5067644;28;21723;-79
2021/04/30 07:18:37;;;;;;;11.80;8.60;;;589.60;1638.40;;;;;;5065959;28;20056;-79
2021/04/30 07:21:04;;;;;;;12.70;7.53;;;589.60;1612.80;;;;;;5052174;28;20044;-79
2021/04/30 07:23:33;;;;;;;11.25;8.35;;;589.20;1664.00;;;;;;5050528;28;20029;-79
2021/04/30 07:25:59;;;;;;;19.73;9.05;;;589.00;1689.60;;;;;;5050557;28;20021;-79
2021/04/30 07:28:25;;;;;;;13.23;9.35;;;589.50;1689.60;;;;;;5067666;28;20502;-79
2021/04/30 07:30:51;;;;;;;10.55;6.75;;;614.80;1638.40;;;;;;5051158;28;20033;-79
2021/04/30 07:33:17;;;;;;;85.00;30.80;;;615.30;1561.60;;;;;;5044010;28;20442;-79
2021/04/30 07:35:43;;;;;;;18.63;9.52;;;615.30;1561.60;;;;;;5050380;28;20091;-79
2021/04/30 07:38:10;;;;;;;10.43;6.97;;;615.00;1587.20;;;;;;5070766;28;20021;-80
2021/04/30 07:40:39;;;;;;;11.52;6.53;;;615.00;1587.20;;;;;;5053576;28;20033;-79
2021/04/30 07:43:15;;;;;;;22.38;8.73;;;614.40;1612.80;;;;;;5056351;28;20025;-79
2021/04/30 07:45:43;;;;;;;9.73;5.75;;;614.40;1612.80;;;;;;5052796;28;20441;-81
2021/04/30 07:48:09;;;;;;;8.07;4.88;;;589.60;1612.80;;;;;;5076169;28;20116;-80
2021/04/30 07:50:37;;;;;;;12.93;6.35;;;589.50;1612.80;;;;;;5052232;28;20500;-80
2021/04/30 07:53:03;;;;;;;7.78;5.05;;;614.40;1612.80;;;;;;5053084;28;20068;-80
2021/04/30 07:55:30;;;;;;;11.88;6.15;;;589.70;1612.80;;;;;;5049004;28;20072;-79
2021/04/30 07:57:56;;;;;;;13.65;7.05;;;614.50;1612.80;;;;;;5052529;28;20037;-78
2021/04/30 08:00:22;;;;;;;13.43;6.40;;;615.00;1561.60;;;;;;5052130;28;20032;-79
2021/04/30 08:02:48;;;;;;;13.18;6.60;;;615.30;1536.00;;;;;;5052998;28;20353;-78
2021/04/30 08:05:14;;;;;;;14.32;7.20;;;640.30;1510.40;;;;;;5049813;28;20114;-78
2021/04/30 08:07:43;;;;;;;10.38;6.47;;;640.40;1484.80;;;;;;5050093;28;20041;-79
2021/04/30 08:10:11;;;;;;;10.32;5.57;;;640.60;1484.80;;;;;;5045117;28;20056;-80
2021/04/30 08:12:38;;;;;;;9.32;5.70;;;640.30;1484.80;;;;;;5067306;28;20102;-80
2021/04/30 08:15:04;;;;;;;11.27;5.28;;;640.10;1510.40;;;;;;5050583;28;20056;-83
2021/04/30 08:17:30;;;;;;;17.92;7.97;;;640.40;1484.80;;;;;;5052097;28;20488;-81
2021/04/30 08:19:58;;;;;;;13.95;8.27;;;640.50;1484.80;;;;;;5050413;28;20124;-81
2021/04/30 08:22:26;;;;;;;102.03;22.48;;;640.70;1459.20;;;;;;5040870;28;20074;-81
2021/04/30 08:24:51;;;;;;;14.27;6.22;;;666.10;1459.20;;;;;;5048493;28;20029;-80
2021/04/30 08:27:19;;;;;;;82.15;16.55;;;666.50;1433.60;;;;;;5041483;28;20029;-79
2021/04/30 08:29:46;;;;;;;25.92;8.35;;;691.50;1382.40;;;;;;5053002;28;20033;-80
2021/04/30 08:32:12;;;;;;;5.90;3.85;;;691.60;1356.80;;;;;;5040465;28;20071;-80
2021/04/30 08:34:37;;;;;;;8.32;4.63;;;691.70;1331.20;;;;;;5051023;28;20835;-80
2021/04/30 08:37:03;;;;;;;7.20;4.72;;;692.10;1305.60;;;;;;5053231;28;20017;-80
2021/04/30 08:39:29;;;;;;;36.75;9.60;;;691.60;1356.80;;;;;;5045786;28;20095;-80
2021/04/30 08:41:55;;;;;;;10.20;4.88;;;716.90;1331.20;;;;;;5053573;28;20029;-80
2021/04/30 08:44:21;;;;;;;14.35;4.32;;;692.00;1331.20;;;;;;5043266;28;20381;-79
2021/04/30 08:46:47;;;;;;;9.60;5.35;;;716.80;1331.20;;;;;;5055390;28;20138;-79
2021/04/30 08:49:12;;;;;;;9.40;4.53;;;717.10;1331.20;;;;;;5055075;28;20033;-80
2021/04/30 08:51:39;;;;;;;8.32;4.75;;;717.00;1305.60;;;;;;5055041;28;20025;-80
2021/04/30 08:54:06;;;;;;;15.68;5.50;;;717.20;1305.60;;;;;;5055949;28;20036;-80
2021/04/30 08:56:33;;;;;;;11.45;5.50;;;717.70;1254.40;;;;;;5055777;28;20061;-81
2021/04/30 08:59:00;;;;;;;8.43;5.13;;;717.70;1254.40;;;;;;5054437;28;20510;-80
2021/04/30 09:01:26;;;;;;;9.38;4.63;;;742.80;1228.80;;;;;;5055518;28;20036;-80
2021/04/30 09:03:52;;;;;;;6.50;3.40;;;742.90;1203.20;;;;;;5049122;28;20033;-80
2021/04/30 09:06:41;;;;;;;9.13;4.78;;;743.10;1203.20;;;;;;5053512;28;20033;-79
2021/04/30 09:09:12;;;;;;;107.28;21.67;;;768.00;1177.60;;;;;;5053540;28;20032;-80
2021/04/30 09:11:40;;;;;;;9.23;5.00;;;742.80;1177.60;;;;;;5069355;28;20387;-80
2021/04/30 09:14:27;;;;;;;59.80;16.65;;;717.30;1254.40;;;;;;5052651;28;20025;-79
2021/04/30 09:17:13;;;;;;;14.98;6.78;;;743.00;1254.40;;;;;;5051529;28;20036;-79
2021/04/30 09:19:47;;;;;;;11.77;5.10;;;743.10;1228.80;;;;;;5053100;28;20379;-79
2021/04/30 09:22:15;;;;;;;9.35;5.68;;;768.20;1203.20;;;;;;5065861;28;20029;-80
2021/04/30 09:24:42;;;;;;;6.85;4.45;;;743.30;1228.80;;;;;;5054108;28;20024;-79
2021/04/30 09:27:08;;;;;;;7.20;4.28;;;768.50;1152.00;;;;;;5054611;28;20029;-79
2021/04/30 09:29:36;;;;;;;6.18;3.88;;;743.20;1228.80;;;;;;5050470;28;20032;-79
2021/04/30 09:32:03;;;;;;;16.30;6.50;;;742.40;1254.40;;;;;;5053333;28;20133;-80
2021/04/30 09:34:35;;;;;;;7.90;5.07;;;768.20;1203.20;;;;;;5047952;28;20040;-79
2021/04/30 09:37:17;;;;;;;6.05;4.18;;;743.10;1228.80;;;;;;5042125;28;20468;-79
2021/04/30 09:39:51;;;;;;;11.93;4.93;;;743.20;1254.40;;;;;;5045082;28;20496;-80
2021/04/30 09:42:21;;;;;;;6.78;4.32;;;768.40;1177.60;;;;;;5052198;28;20021;-79
2021/04/30 09:44:52;;;;;;;9.77;6.15;;;768.90;1152.00;;;;;;5053629;28;20025;-79
2021/04/30 09:47:26;;;;;;;17.05;7.15;;;793.60;1152.00;;;;;;5053018;28;20029;-80
2021/04/30 09:49:58;;;;;;;18.60;5.50;;;793.80;1126.40;;;;;;5052372;28;20029;-79
2021/04/30 09:52:25;;;;;;;9.57;6.72;;;768.70;1152.00;;;;;;5046163;28;20025;-80
2021/04/30 09:54:53;;;;;;;11.40;5.55;;;793.60;1152.00;;;;;;5052720;28;20039;-79
2021/04/30 09:57:24;;;;;;;5.22;3.25;;;768.10;1177.60;;;;;;5041983;28;20056;-79
2021/04/30 10:00:02;;;;;;;7.60;4.80;;;768.00;1152.00;;;;;;5052156;28;20013;-79
2021/04/30 10:02:29;;;;;;;6.53;3.92;;;742.90;1203.20;;;;;;5046277;28;20112;-79
2021/04/30 10:04:57;;;;;;;7.47;4.68;;;742.40;1203.20;;;;;;5051286;28;20106;-79
2021/04/30 10:07:27;;;;;;;8.70;4.90;;;743.30;1203.20;;;;;;5051947;28;20029;-79
2021/04/30 10:10:11;;;;;;;9.98;4.32;;;768.90;1126.40;;;;;;5070224;28;20057;-80
2021/04/30 10:12:39;;;;;;;8.05;3.95;;;768.10;1177.60;;;;;;5052197;28;20804;-80
2021/04/30 10:15:07;;;;;;;7.05;3.65;;;768.20;1152.00;;;;;;5052040;28;20025;-79
2021/04/30 10:17:33;;;;;;;8.48;3.22;;;768.50;1126.40;;;;;;5052345;28;20017;-80
2021/04/30 10:19:59;;;;;;;6.05;3.75;;;768.20;1152.00;;;;;;5044724;28;20120;-79
2021/04/30 10:22:27;;;;;;;8.57;4.53;;;768.00;1177.60;;;;;;5053197;28;20112;-79
2021/04/30 10:24:55;;;;;;;6.65;4.13;;;768.60;1126.40;;;;;;5044585;28;20021;-79
2021/04/30 10:27:36;;;;;;;8.55;3.78;;;768.10;1152.00;;;;;;5051126;28;20040;-78
2021/04/30 10:30:17;;;;;;;5.85;4.30;;;743.20;1177.60;;;;;;5042983;28;20025;-80
2021/04/30 10:32:49;;;;;;;9.02;3.47;;;742.90;1177.60;;;;;;5065149;28;20200;-79
2021/04/30 10:35:22;;;;;;;7.45;4.15;;;742.90;1177.60;;;;;;5051980;28;20029;-80
2021/04/30 10:37:48;;;;;;;9.38;3.20;;;743.20;1152.00;;;;;;5052681;28;20021;-79
2021/04/30 10:40:14;;;;;;;11.05;3.63;;;768.20;1126.40;;;;;;5043712;28;20013;-79
2021/04/30 10:42:45;;;;;;;6.00;3.90;;;768.10;1152.00;;;;;;5054445;28;20108;-82
2021/04/30 10:45:18;;;;;;;7.57;4.10;;;768.60;1100.80;;;;;;5060537;28;20053;-83
2021/04/30 10:48:05;;;;;;;5.20;3.53;;;794.30;1075.20;;;;;;5053981;28;20496;-83
2021/04/30 10:50:31;;;;;;;6.15;3.58;;;819.40;1049.60;;;;;;5063748;28;20439;-84
2021/04/30 10:53:24;;;;;;;7.07;4.60;;;794.30;1075.20;;;;;;5050202;28;20025;-83
2021/04/30 10:55:50;;;;;;;7.30;3.75;;;768.50;1152.00;;;;;;5052758;28;20013;-83
2021/04/30 10:58:39;;;;;;;7.65;3.83;;;768.60;1100.80;;;;;;5052525;28;20024;-87
2021/04/30 11:01:28;;;;;;;5.32;2.65;;;794.20;1049.60;;;;;;5054297;28;20029;-83
2021/04/30 11:04:09;;;;;;;7.97;3.10;;;794.20;998.40;;;;;;5048956;28;20056;-88
2021/04/30 11:06:54;;;;;;;8.60;3.13;;;819.20;947.20;;;;;;5046615;28;20065;-83
2021/04/30 11:09:19;;;;;;;6.30;2.83;;;768.90;998.40;;;;;;5069643;28;20021;-84
2021/04/30 11:11:47;;;;;;;5.55;3.83;;;768.90;998.40;;;;;;5045709;28;20361;-84
2021/04/30 11:14:18;;;;;;;5.80;3.40;;;768.90;998.40;;;;;;5047769;28;20365;-85
2021/04/30 11:16:47;;;;;;;6.85;3.30;;;768.70;1024.00;;;;;;5051979;28;20013;-85
2021/04/30 11:19:13;;;;;;;4.40;3.00;;;768.10;1049.60;;;;;;5052218;28;20025;-86
2021/04/30 11:21:51;;;;;;;7.28;3.10;;;743.20;1049.60;;;;;;5049444;28;20040;-84
2021/04/30 11:24:29;;;;;;;5.10;2.47;;;768.10;1049.60;;;;;;5050638;28;20479;-85
2021/04/30 11:27:16;;;;;;;3.80;2.20;;;768.10;1024.00;;;;;;5062171;28;20577;-86
2021/04/30 11:29:42;;;;;;;8.13;3.28;;;768.00;1024.00;;;;;;5067146;28;20025;-86
2021/04/30 11:32:26;;;;;;;4.50;2.30;;;768.70;1049.60;;;;;;5043844;28;20128;-87
2021/04/30 11:35:01;;;;;;;5.55;2.92;;;768.50;1049.60;;;;;;5050467;28;20092;-85
2021/04/30 11:37:28;;;;;;;6.75;3.60;;;768.50;1049.60;;;;;;5051048;28;20021;-88
2021/04/30 11:39:56;;;;;;;4.60;2.30;;;768.70;1024.00;;;;;;5044444;28;20029;-86
2021/04/30 11:42:33;;;;;;;8.02;3.00;;;794.00;998.40;;;;;;5052183;28;20475;-86
2021/04/30 11:45:00;;;;;;;3.85;2.42;;;768.70;972.80;;;;;;5052293;28;20028;-87
2021/04/30 11:47:32;;;;;;;6.63;2.75;;;768.50;972.80;;;;;;5048745;28;20025;-87
2021/04/30 11:49:59;;;;;;;5.68;2.88;;;768.70;947.20;;;;;;5041338;28;20491;-86
2021/04/30 11:52:42;;;;;;;5.03;2.40;;;793.70;947.20;;;;;;5046871;28;20047;-88
2021/04/30 11:55:13;;;;;;;5.18;2.80;;;768.60;947.20;;;;;;5044942;28;20099;-87
2021/04/30 11:57:39;;;;;;;4.32;2.05;;;768.50;972.80;;;;;;5043398;28;20981;-87
2021/04/30 12:00:18;;;;;;;3.85;2.20;;;768.50;947.20;;;;;;5044440;28;20064;-90
2021/04/30 12:02:44;;;;;;;3.75;2.03;;;768.30;947.20;;;;;;5043630;28;20518;-82
2021/04/30 12:05:10;;;;;;;4.68;2.58;;;768.20;972.80;;;;;;5044819;28;20025;-83
2021/04/30 12:07:37;;;;;;;4.90;2.38;;;743.20;998.40;;;;;;5050711;28;20044;-85
2021/04/30 12:10:05;;;;;;;3.42;1.98;;;743.10;998.40;;;;;;5049436;28;20036;-83